Time;durP1;ratioP1;P1;durP2;ratioP2;P2;SDS_P1;SDS_P2;PMS_P1;PMS_P2;Temp;Humidity;BMP_temperature;BMP_pressure;BME280_temperature;BME280_humidity;BME280_pressure;Samples;Min_cycle;Max_cycle;Signal;HPM_P1;HPM_P2
2021/01/09 00:00:01;;;;;;;;;;;;;;;20.00;43.05;100443.00;5037219;28;771;-56
2021/01/09 00:02:26;;;;;;;;;;;;;;;20.32;42.29;100444.84;5036687;28;756;-59
2021/01/09 00:04:51;;;;;;;;;;;;;;;20.06;42.88;100458.31;5036973;28;795;-58
2021/01/09 00:07:17;;;;;;;;;;;;;;;19.99;42.97;100438.59;5036742;28;967;-59
2021/01/09 00:09:42;;;;;;;;;;;;;;;19.25;44.48;100439.28;5019234;28;1103;-59
2021/01/09 00:12:11;;;;;;;;;;;;;;;19.20;44.91;100444.91;5036671;28;799;-59
2021/01/09 00:14:36;;;;;;;;;;;;;;;20.32;42.33;100433.81;5036961;28;1985;-60
2021/01/09 00:17:02;;;;;;;;;;;;;;;20.26;42.09;100461.81;5042689;28;1120;-60
2021/01/09 00:19:27;;;;;;;;;;;;;;;20.22;42.26;100456.09;5056649;28;831;-59
2021/01/09 00:21:53;;;;;;;;;;;;;;;19.77;43.18;100453.88;5050556;28;1468;-59
2021/01/09 00:24:19;;;;;;;;;;;;;;;19.12;44.78;100463.72;5036469;28;755;-60
2021/01/09 00:26:44;;;;;;;;;;;;;;;19.09;44.90;100450.53;5036604;28;677;-59
2021/01/09 00:29:09;;;;;;;;;;;;;;;19.51;44.26;100474.72;5037107;28;779;-59
2021/01/09 00:31:35;;;;;;;;;;;;;;;20.35;42.23;100480.13;5036788;28;764;-59
2021/01/09 00:34:00;;;;;;;;;;;;;;;20.30;41.97;100479.41;5036526;28;803;-60
2021/01/09 00:36:26;;;;;;;;;;;;;;;20.18;42.16;100483.50;5036306;28;1914;-60
2021/01/09 00:38:52;;;;;;;;;;;;;;;19.91;42.79;100477.91;5036462;28;896;-59
2021/01/09 00:41:37;;;;;;;;;;;;;;;19.29;44.32;100471.47;5036431;28;779;-57
2021/01/09 00:44:03;;;;;;;;;;;;;;;19.20;44.47;100469.69;5036317;28;1820;-60
2021/01/09 00:46:28;;;;;;;;;;;;;;;20.06;42.50;100474.06;5035968;28;791;-60
2021/01/09 00:48:54;;;;;;;;;;;;;;;20.84;41.01;100496.31;5036531;28;744;-59
2021/01/09 00:51:19;;;;;;;;;;;;;;;20.15;42.31;100500.66;5036173;28;979;-60
2021/01/09 00:53:45;;;;;;;;;;;;;;;20.15;42.30;100489.63;5018722;28;811;-57
2021/01/09 00:56:16;;;;;;;;;;;;;;;19.71;43.15;100496.44;5036434;28;1973;-59
2021/01/09 00:58:42;;;;;;;;;;;;;;;19.15;44.51;100507.25;5036310;28;847;-58
2021/01/09 01:01:07;;;;;;;;;;;;;;;19.58;43.81;100497.22;5035865;28;756;-59
2021/01/09 01:03:33;;;;;;;;;;;;;;;20.42;41.90;100498.25;5036439;28;744;-59
2021/01/09 01:05:58;;;;;;;;;;;;;;;20.18;42.09;100496.50;5036184;28;871;-60
2021/01/09 01:08:24;;;;;;;;;;;;;;;20.16;42.30;100480.22;5035632;28;963;-59
2021/01/09 01:10:49;;;;;;;;;;;;;;;19.77;42.95;100502.72;5039045;28;803;-59
2021/01/09 01:13:15;;;;;;;;;;;;;;;19.39;43.92;100505.50;5040066;28;764;-60
2021/01/09 01:15:40;;;;;;;;;;;;;;;20.10;42.48;100488.91;5040116;28;1918;-60
2021/01/09 01:18:06;;;;;;;;;;;;;;;20.61;41.31;100473.28;5055109;28;1268;-60
2021/01/09 01:20:31;;;;;;;;;;;;;;;20.29;42.06;100488.84;5059861;28;775;-56
2021/01/09 01:22:57;;;;;;;;;;;;;;;20.14;42.28;100504.53;5044797;28;1152;-60
2021/01/09 01:25:22;;;;;;;;;;;;;;;19.38;43.62;100504.69;5039972;28;736;-59
2021/01/09 01:27:47;;;;;;;;;;;;;;;19.13;45.07;100511.41;5039957;28;791;-60
2021/01/09 01:30:13;;;;;;;;;;;;;;;20.19;42.22;100498.13;5039941;28;773;-59
2021/01/09 01:32:38;;;;;;;;;;;;;;;20.41;41.67;100502.97;5039599;28;1012;-60
2021/01/09 01:35:04;;;;;;;;;;;;;;;20.22;42.11;100516.03;5039748;28;1918;-60
2021/01/09 01:37:30;;;;;;;;;;;;;;;19.83;42.81;100510.63;5039282;28;1042;-60
2021/01/09 01:39:55;;;;;;;;;;;;;;;19.40;43.82;100502.44;5039527;28;863;-60
2021/01/09 01:42:20;;;;;;;;;;;;;;;19.17;44.22;100522.66;5039749;28;874;-57
2021/01/09 01:44:46;;;;;;;;;;;;;;;19.39;43.87;100517.38;5039362;28;791;-57
2021/01/09 01:47:14;;;;;;;;;;;;;;;19.46;43.54;100504.03;5039587;28;815;-60
2021/01/09 01:49:40;;;;;;;;;;;;;;;19.20;44.24;100508.28;5039999;28;803;-60
2021/01/09 01:52:05;;;;;;;;;;;;;;;20.11;42.37;100494.13;5038915;28;959;-59
2021/01/09 01:54:31;;;;;;;;;;;;;;;20.51;41.24;100477.09;5021698;28;1161;-60
2021/01/09 01:56:56;;;;;;;;;;;;;;;20.04;42.36;100479.09;5039427;28;1979;-57
2021/01/09 01:59:22;;;;;;;;;;;;;;;20.07;41.93;100497.81;5021267;28;740;-55
2021/01/09 02:01:49;;;;;;;;;;;;;;;19.12;44.02;100520.78;5039267;28;768;-60
2021/01/09 02:04:14;;;;;;;;;;;;;;;19.73;42.97;100552.16;5039615;28;812;-59
2021/01/09 02:06:40;;;;;;;;;;;;;;;20.50;41.30;100536.19;5038637;28;971;-57
2021/01/09 02:09:34;;;;;;;;;;;;;;;20.42;41.24;100536.91;5021604;28;792;-57
2021/01/09 02:12:07;;;;;;;;;;;;;;;20.13;41.84;100511.22;5016100;28;1209;-59
2021/01/09 02:14:35;;;;;;;;;;;;;;;19.47;43.22;100505.69;5038532;28;831;-59
2021/01/09 02:17:00;;;;;;;;;;;;;;;19.69;43.25;100500.66;5045013;28;1977;-59
2021/01/09 02:19:26;;;;;;;;;;;;;;;20.51;41.13;100519.31;5058981;28;874;-59
2021/01/09 02:21:51;;;;;;;;;;;;;;;20.21;41.82;100539.22;5039622;28;1172;-59
2021/01/09 02:24:17;;;;;;;;;;;;;;;20.05;41.90;100542.28;5041123;28;807;-60
2021/01/09 02:26:43;;;;;;;;;;;;;;;19.62;43.14;100545.16;5058861;28;751;-59
2021/01/09 02:29:09;;;;;;;;;;;;;;;19.34;43.63;100547.78;5058404;28;752;-60
2021/01/09 02:31:43;;;;;;;;;;;;;;;19.04;44.64;100549.84;5058715;28;835;-54
2021/01/09 02:34:09;;;;;;;;;;;;;;;20.14;42.03;100570.00;5040582;28;916;-55
2021/01/09 02:36:35;;;;;;;;;;;;;;;20.40;41.24;100578.66;5054698;28;1967;-54
2021/01/09 02:39:00;;;;;;;;;;;;;;;20.12;42.02;100556.50;5004855;28;808;-54
2021/01/09 02:41:26;;;;;;;;;;;;;;;19.96;42.05;100567.00;5020864;28;812;-59
2021/01/09 02:43:51;;;;;;;;;;;;;;;19.39;43.37;100567.00;5020538;28;795;-56
2021/01/09 02:46:17;;;;;;;;;;;;;;;19.29;43.81;100558.88;5038865;28;736;-59
2021/01/09 02:48:42;;;;;;;;;;;;;;;20.35;41.38;100576.78;5038328;28;724;-59
2021/01/09 02:51:07;;;;;;;;;;;;;;;20.20;41.91;100573.47;5038047;28;808;-57
2021/01/09 02:53:33;;;;;;;;;;;;;;;20.27;41.58;100562.84;5038471;28;1075;-59
2021/01/09 02:55:58;;;;;;;;;;;;;;;19.67;42.71;100570.72;5038085;28;1910;-56
2021/01/09 02:58:24;;;;;;;;;;;;;;;19.05;44.18;100598.31;5038022;28;808;-60
2021/01/09 03:00:49;;;;;;;;;;;;;;;19.38;43.98;100583.84;5038246;28;800;-60
2021/01/09 03:03:14;;;;;;;;;;;;;;;20.41;41.48;100601.53;5037988;28;792;-54
2021/01/09 03:05:40;;;;;;;;;;;;;;;20.09;41.98;100606.78;5037869;28;812;-59
2021/01/09 03:08:05;;;;;;;;;;;;;;;20.06;42.07;100623.94;5020073;28;1019;-60
2021/01/09 03:10:31;;;;;;;;;;;;;;;19.62;43.09;100625.16;5037971;28;795;-60
2021/01/09 03:12:56;;;;;;;;;;;;;;;19.24;43.74;100616.84;5037804;28;771;-60
2021/01/09 03:15:22;;;;;;;;;;;;;;;19.79;42.64;100608.91;5037847;28;1955;-56
2021/01/09 03:17:49;;;;;;;;;;;;;;;20.54;41.13;100610.97;5050297;28;1190;-59
2021/01/09 03:20:14;;;;;;;;;;;;;;;20.24;41.60;100611.22;5057712;28;772;-60
2021/01/09 03:22:40;;;;;;;;;;;;;;;20.23;41.51;100623.41;5044837;28;1049;-58
2021/01/09 03:25:05;;;;;;;;;;;;;;;19.81;42.61;100637.03;5037802;28;808;-60
2021/01/09 03:27:31;;;;;;;;;;;;;;;19.28;43.62;100648.22;5038178;28;716;-59
2021/01/09 03:29:56;;;;;;;;;;;;;;;19.76;42.65;100642.59;5037512;28;774;-59
2021/01/09 03:32:22;;;;;;;;;;;;;;;20.62;40.92;100635.97;5036723;28;765;-59
2021/01/09 03:34:48;;;;;;;;;;;;;;;20.15;41.86;100627.66;5037628;28;1971;-60
2021/01/09 03:37:15;;;;;;;;;;;;;;;20.01;41.99;100635.06;5036869;28;955;-60
2021/01/09 03:39:40;;;;;;;;;;;;;;;19.55;43.00;100660.56;5037856;28;795;-59
2021/01/09 03:42:06;;;;;;;;;;;;;;;19.34;43.74;100660.00;5037790;28;736;-59
2021/01/09 03:44:31;;;;;;;;;;;;;;;20.29;41.35;100652.56;5037262;28;775;-59
2021/01/09 03:46:57;;;;;;;;;;;;;;;20.34;41.07;100673.72;5037410;28;767;-60
2021/01/09 03:49:22;;;;;;;;;;;;;;;20.13;41.77;100690.66;5037643;28;752;-59
2021/01/09 03:51:47;;;;;;;;;;;;;;;19.78;42.47;100709.34;5036504;28;975;-60
2021/01/09 03:54:13;;;;;;;;;;;;;;;19.32;43.79;100698.88;5037383;28;759;-59
2021/01/09 03:56:38;;;;;;;;;;;;;;;19.05;44.44;100693.94;5037149;28;1987;-59
2021/01/09 03:59:04;;;;;;;;;;;;;;;19.94;42.31;100701.69;5036743;28;824;-59
2021/01/09 04:01:29;;;;;;;;;;;;;;;20.62;40.85;100694.00;5037369;28;858;-56
2021/01/09 04:03:55;;;;;;;;;;;;;;;20.12;41.80;100700.03;5036898;28;824;-60
2021/01/09 04:06:20;;;;;;;;;;;;;;;20.09;41.74;100703.41;5036577;28;959;-60
2021/01/09 04:08:45;;;;;;;;;;;;;;;19.78;42.30;100714.84;5037703;28;803;-60
2021/01/09 04:11:11;;;;;;;;;;;;;;;19.26;43.70;100720.16;5036694;28;740;-56
2021/01/09 04:13:36;;;;;;;;;;;;;;;19.59;42.90;100714.81;5036602;28;851;-49
2021/01/09 04:16:02;;;;;;;;;;;;;;;20.47;41.09;100716.34;5036861;28;1918;-52
2021/01/09 04:18:28;;;;;;;;;;;;;;;20.09;41.57;100702.56;5054563;28;1250;-52
2021/01/09 04:20:53;;;;;;;;;;;;;;;20.04;41.76;100708.19;5056383;28;772;-51
2021/01/09 04:23:19;;;;;;;;;;;;;;;19.69;42.55;100710.28;5038743;28;1137;-53
2021/01/09 04:25:44;;;;;;;;;;;;;;;19.21;43.49;100711.97;5036619;28;745;-54
2021/01/09 04:28:09;;;;;;;;;;;;;;;20.10;41.91;100707.78;5036476;28;799;-65
2021/01/09 04:30:35;;;;;;;;;;;;;;;20.68;40.25;100700.28;5036504;28;736;-56
2021/01/09 04:33:00;;;;;;;;;;;;;;;20.16;41.57;100711.28;5036640;28;791;-60
2021/01/09 04:35:26;;;;;;;;;;;;;;;20.07;41.60;100710.34;5036317;28;1981;-52
2021/01/09 04:37:51;;;;;;;;;;;;;;;19.61;42.54;100728.31;5036237;28;967;-57
2021/01/09 04:40:17;;;;;;;;;;;;;;;19.51;42.99;100736.72;5036825;28;820;-55
2021/01/09 04:42:42;;;;;;;;;;;;;;;20.35;41.11;100730.59;5036276;28;756;-53
2021/01/09 04:45:08;;;;;;;;;;;;;;;20.12;41.50;100722.13;5036135;28;874;-52
2021/01/09 04:47:33;;;;;;;;;;;;;;;20.16;41.53;100723.16;5018987;28;752;-47
2021/01/09 04:50:00;;;;;;;;;;;;;;;19.84;42.05;100743.22;5036440;28;807;-49
2021/01/09 04:52:25;;;;;;;;;;;;;;;19.28;43.43;100753.78;5035272;28;1010;-56
2021/01/09 04:54:51;;;;;;;;;;;;;;;19.66;42.80;100753.06;5018454;28;1981;-48
2021/01/09 04:57:17;;;;;;;;;;;;;;;20.55;40.74;100742.44;5035965;28;759;-49
2021/01/09 04:59:42;;;;;;;;;;;;;;;20.17;41.44;100751.59;5036163;28;840;-58
2021/01/09 05:02:08;;;;;;;;;;;;;;;20.21;41.18;100779.44;5036358;28;780;-48
2021/01/09 05:04:34;;;;;;;;;;;;;;;19.58;42.52;100793.16;5019027;28;944;-57
2021/01/09 05:06:59;;;;;;;;;;;;;;;18.97;44.35;100775.31;5035835;28;1020;-57
2021/01/09 05:09:25;;;;;;;;;;;;;;;20.06;41.82;100772.97;5036316;28;815;-46
2021/01/09 05:11:50;;;;;;;;;;;;;;;20.58;40.33;100783.28;5035661;28;741;-58
2021/01/09 05:14:16;;;;;;;;;;;;;;;20.23;41.26;100802.03;5018648;28;1276;-57
2021/01/09 05:16:41;;;;;;;;;;;;;;;19.80;41.89;100808.41;5039368;28;1981;-57
2021/01/09 05:19:07;;;;;;;;;;;;;;;19.43;42.43;100819.00;5055680;28;823;-59
2021/01/09 05:21:34;;;;;;;;;;;;;;;19.29;42.81;100823.53;5052851;28;931;-59
2021/01/09 05:24:00;;;;;;;;;;;;;;;20.02;41.31;100816.13;5036111;28;1021;-60
2021/01/09 05:26:25;;;;;;;;;;;;;;;20.54;40.09;100818.16;5018135;28;823;-60
2021/01/09 05:28:51;;;;;;;;;;;;;;;20.17;40.93;100835.25;5018555;28;791;-53
2021/01/09 05:31:17;;;;;;;;;;;;;;;19.99;41.14;100838.78;5036146;28;847;-59
2021/01/09 05:33:43;;;;;;;;;;;;;;;19.46;42.71;100831.34;5035573;28;858;-60
2021/01/09 05:36:08;;;;;;;;;;;;;;;19.14;43.44;100819.81;5036132;28;1980;-58
2021/01/09 05:38:37;;;;;;;;;;;;;;;20.13;41.12;100838.88;5035689;28;998;-57
2021/01/09 05:41:03;;;;;;;;;;;;;;;20.88;39.66;100839.22;5035552;28;756;-59
2021/01/09 05:43:29;;;;;;;;;;;;;;;21.25;38.83;100823.66;5036378;28;867;-56
2021/01/09 05:45:54;;;;;;;;;;;;;;;20.60;39.90;100809.47;5035880;28;811;-54
2021/01/09 05:48:20;;;;;;;;;;;;;;;20.41;40.31;100815.03;5018208;28;808;-51
2021/01/09 05:50:45;;;;;;;;;;;;;;;19.90;41.54;100821.25;5018108;28;799;-57
2021/01/09 05:53:10;;;;;;;;;;;;;;;19.32;43.08;100836.72;5035782;28;968;-58
2021/01/09 05:55:40;;;;;;;;;;;;;;;19.42;42.94;100844.91;5002251;28;1914;-55
2021/01/09 05:58:06;;;;;;;;;;;;;;;20.39;40.56;100858.69;5039771;28;772;-59
2021/01/09 06:00:31;;;;;;;;;;;;;;;20.17;41.00;100857.34;5021695;28;784;-58
2021/01/09 06:03:16;;;;;;;;;;;;;;;20.11;41.34;100854.94;5021056;28;835;-58
2021/01/09 06:05:50;;;;;;;;;;;;;;;19.62;42.23;100851.31;5039729;28;784;-57
2021/01/09 06:08:18;;;;;;;;;;;;;;;19.08;43.46;100859.56;5021535;28;1007;-60
2021/01/09 06:10:44;;;;;;;;;;;;;;;20.02;41.49;100876.00;5039080;28;775;-60
2021/01/09 06:13:10;;;;;;;;;;;;;;;20.63;39.91;100885.44;5039276;28;827;-60
2021/01/09 06:15:35;;;;;;;;;;;;;;;20.12;41.20;100886.94;5021203;28;1968;-59
2021/01/09 06:18:00;;;;;;;;;;;;;;;20.07;41.12;100885.03;5035067;28;1199;-61
2021/01/09 06:20:26;;;;;;;;;;;;;;;19.51;42.37;100882.88;5041198;28;828;-58
2021/01/09 06:22:53;;;;;;;;;;;;;;;19.29;43.15;100897.97;5040356;28;981;-60
2021/01/09 06:25:18;;;;;;;;;;;;;;;20.32;40.90;100894.94;5058454;28;772;-59
2021/01/09 06:27:44;;;;;;;;;;;;;;;20.18;40.84;100919.69;5041388;28;795;-58
2021/01/09 06:30:10;;;;;;;;;;;;;;;20.10;41.29;100928.63;5040264;28;942;-59
2021/01/09 06:32:36;;;;;;;;;;;;;;;19.65;41.98;100931.53;5058466;28;755;-60
2021/01/09 06:35:04;;;;;;;;;;;;;;;19.00;43.61;100929.06;5058472;28;1914;-56
2021/01/09 06:37:29;;;;;;;;;;;;;;;20.06;41.36;100926.75;5047693;28;1002;-61
2021/01/09 06:39:55;;;;;;;;;;;;;;;20.47;40.38;100929.84;5038703;28;807;-60
2021/01/09 06:42:20;;;;;;;;;;;;;;;20.26;40.79;100933.97;5020497;28;860;-59
2021/01/09 06:44:49;;;;;;;;;;;;;;;19.85;41.50;100939.94;5038565;28;900;-56
2021/01/09 06:47:28;;;;;;;;;;;;;;;19.65;42.08;100950.03;5038824;28;816;-60
2021/01/09 06:50:19;;;;;;;;;;;;;;;19.11;43.31;100960.13;5038396;28;783;-64
2021/01/09 06:52:54;;;;;;;;;;;;;;;19.95;41.59;100981.22;5038073;28;1117;-62
2021/01/09 06:55:40;;;;;;;;;;;;;;;20.51;40.39;100980.63;5020397;28;1906;-60
2021/01/09 06:58:08;;;;;;;;;;;;;;;20.15;41.17;100978.28;5037906;28;1572;-59
2021/01/09 07:00:33;;;;;;;;;;;;;;;20.06;41.26;100991.06;5020156;28;883;-60
2021/01/09 07:03:11;;;;;;;;;;;;;;;19.18;42.95;100993.72;5038116;28;772;-60
2021/01/09 07:05:43;;;;;;;;;;;;;;;19.77;42.11;100986.34;5037951;28;764;-59
2021/01/09 07:08:08;;;;;;;;;;;;;;;20.58;40.36;100993.22;5037854;28;963;-59
2021/01/09 07:10:34;;;;;;;;;;;;;;;20.26;40.59;100994.72;5019591;28;844;-60
2021/01/09 07:13:03;;;;;;;;;;;;;;;20.09;41.32;100997.94;5020609;28;1312;-60
2021/01/09 07:15:28;;;;;;;;;;;;;;;19.50;42.31;101003.41;5037863;28;1905;-61
2021/01/09 07:17:55;;;;;;;;;;;;;;;19.10;43.37;101022.69;5050495;28;1222;-61
2021/01/09 07:20:22;;;;;;;;;;;;;;;20.08;41.21;101018.41;5057870;28;731;-60
2021/01/09 07:22:49;;;;;;;;;;;;;;;20.73;39.66;101031.75;5044252;28;994;-60
2021/01/09 07:25:14;;;;;;;;;;;;;;;20.32;40.65;101041.31;5035706;28;874;-59
2021/01/09 07:27:50;;;;;;;;;;;;;;;20.26;40.79;101033.38;5020080;28;1446;-59
2021/01/09 07:30:16;;;;;;;;;;;;;;;19.60;42.29;101036.44;5037588;28;751;-59
2021/01/09 07:32:49;;;;;;;;;;;;;;;19.21;43.17;101052.97;5037159;28;795;-58
2021/01/09 07:35:25;;;;;;;;;;;;;;;20.16;41.03;101037.91;5037249;28;1918;-58
2021/01/09 07:37:51;;;;;;;;;;;;;;;20.40;40.36;101039.88;5019790;28;1298;-61
2021/01/09 07:40:20;;;;;;;;;;;;;;;20.06;41.22;101031.66;5037025;28;799;-59
2021/01/09 07:42:45;;;;;;;;;;;;;;;19.70;41.74;101041.06;5037892;28;807;-59
2021/01/09 07:45:15;;;;;;;;;;;;;;;18.99;43.37;101034.91;5037382;28;835;-60
2021/01/09 07:47:41;;;;;;;;;;;;;;;19.95;41.73;101039.19;5019759;28;804;-60
2021/01/09 07:50:11;;;;;;;;;;;;;;;20.48;40.28;101050.28;5037381;28;791;-57
2021/01/09 07:52:36;;;;;;;;;;;;;;;20.18;40.75;101054.16;5036913;28;959;-60
2021/01/09 07:55:02;;;;;;;;;;;;;;;19.88;41.71;101058.03;5037084;28;1987;-60
2021/01/09 07:57:29;;;;;;;;;;;;;;;19.51;42.30;101079.53;5037293;28;878;-58
2021/01/09 07:59:54;;;;;;;;;;;;;;;19.28;43.17;101079.13;5036993;28;812;-59
2021/01/09 08:02:26;;;;;;;;;;;;;;;20.32;40.70;101073.63;5037101;28;771;-60
2021/01/09 08:05:21;;;;;;;;;;;;;;;20.42;40.25;101076.28;5037195;28;776;-61
2021/01/09 08:07:46;;;;;;;;;;;;;;;20.24;40.71;101075.09;5035058;28;1007;-58
2021/01/09 08:10:15;;;;;;;;;;;;;;;19.83;41.68;101070.75;5036620;28;816;-61
2021/01/09 08:12:40;;;;;;;;;;;;;;;19.36;42.66;101088.72;5037038;28;759;-59
2021/01/09 08:15:06;;;;;;;;;;;;;;;19.05;43.54;101086.13;5036644;28;1910;-60
2021/01/09 08:17:32;;;;;;;;;;;;;;;20.03;41.17;101088.25;5046754;28;1136;-60
2021/01/09 08:20:23;;;;;;;;;;;;;;;20.39;40.29;101082.41;5056206;28;848;-61
2021/01/09 08:22:50;;;;;;;;;;;;;;;19.87;41.50;101089.53;5040822;28;1177;-58
2021/01/09 08:25:15;;;;;;;;;;;;;;;19.66;41.94;101095.16;5036484;28;799;-62
2021/01/09 08:27:42;;;;;;;;;;;;;;;19.27;42.89;101104.22;5036649;28;811;-59
2021/01/09 08:30:08;;;;;;;;;;;;;;;19.44;42.58;101118.44;5036956;28;809;-58
2021/01/09 08:32:34;;;;;;;;;;;;;;;20.36;40.50;101116.13;5036468;28;847;-58
2021/01/09 08:34:59;;;;;;;;;;;;;;;20.30;40.63;101109.00;5036322;28;1914;-58
2021/01/09 08:37:25;;;;;;;;;;;;;;;20.07;40.88;101103.13;5036438;28;1003;-59
2021/01/09 08:39:50;;;;;;;;;;;;;;;19.70;41.85;101103.66;5018635;28;934;-58
2021/01/09 08:42:17;;;;;;;;;;;;;;;19.18;43.00;101097.63;5036273;28;792;-59
2021/01/09 08:44:47;;;;;;;;;;;;;;;19.59;42.14;101106.50;5036611;28;542;-58
2021/01/09 08:47:12;;;;;;;;;;;;;;;20.44;40.22;101107.22;5036013;28;772;-56
2021/01/09 08:49:38;;;;;;;;;;;;;;;20.04;40.94;101117.50;5018437;28;884;-58
2021/01/09 08:52:04;;;;;;;;;;;;;;;19.95;41.40;101127.50;5018005;28;1291;-48
2021/01/09 08:54:30;;;;;;;;;;;;;;;19.40;42.36;101128.41;5035939;28;735;-56
2021/01/09 08:56:56;;;;;;;;;;;;;;;19.17;43.24;101134.56;5019104;28;1914;-59
2021/01/09 08:59:21;;;;;;;;;;;;;;;20.29;40.55;101127.50;5036716;28;825;-56
2021/01/09 09:01:47;;;;;;;;;;;;;;;20.15;40.62;101109.97;5035576;28;772;-60
2021/01/09 09:04:12;;;;;;;;;;;;;;;19.92;41.19;101103.25;5035960;28;808;-55
2021/01/09 09:06:38;;;;;;;;;;;;;;;19.62;41.99;101113.38;5032572;28;912;-58
2021/01/09 09:09:04;;;;;;;;;;;;;;;19.21;42.68;101105.34;5037275;28;1046;-59
2021/01/09 09:11:29;;;;;;;;;;;;;;;19.76;41.76;101106.09;5051788;28;1118;-60
2021/01/09 09:14:05;;;;;;;;;;;;;;;20.51;39.92;101099.41;5037352;28;903;-59
2021/01/09 09:16:30;;;;;;;;;;;;;;;20.16;40.79;101095.03;5034547;28;1942;-59
2021/01/09 09:18:55;;;;;;;;;;;;;;;19.93;41.34;101093.88;5055586;28;872;-59
2021/01/09 09:21:21;;;;;;;;;;;;;;;19.55;42.14;101088.06;5054489;28;1125;-62
2021/01/09 09:23:50;;;;;;;;;;;;;;;19.70;41.74;101101.75;5017807;28;1508;-60
2021/01/09 09:26:16;;;;;;;;;;;;;;;20.47;40.01;101092.00;5036038;28;712;-57
2021/01/09 09:28:42;;;;;;;;;;;;;;;20.13;40.64;101093.72;5043508;28;888;-63
2021/01/09 09:31:17;;;;;;;;;;;;;;;20.16;40.83;101104.16;5035555;28;895;-59
2021/01/09 09:33:54;;;;;;;;;;;;;;;19.52;42.05;101096.88;5059399;28;840;-59
2021/01/09 09:36:19;;;;;;;;;;;;;;;18.91;43.31;101096.91;5057815;28;1963;-60
2021/01/09 09:38:45;;;;;;;;;;;;;;;19.99;41.04;101110.09;5039091;28;771;-58
2021/01/09 09:41:10;;;;;;;;;;;;;;;20.50;39.75;101099.69;5039851;28;748;-59
2021/01/09 09:43:36;;;;;;;;;;;;;;;19.93;41.33;101082.84;5027493;28;900;-57
2021/01/09 09:46:03;;;;;;;;;;;;;;;19.91;41.35;101093.31;5055478;28;880;-56
2021/01/09 09:48:29;;;;;;;;;;;;;;;19.35;42.41;101100.88;5055852;28;896;-57
2021/01/09 09:51:07;;;;;;;;;;;;;;;19.69;41.75;101094.56;5057783;28;916;-59
2021/01/09 09:53:35;;;;;;;;;;;;;;;20.64;39.52;101097.06;5056700;28;821;-56
2021/01/09 09:56:10;;;;;;;;;;;;;;;20.04;41.05;101097.38;5055583;28;1902;-55
2021/01/09 09:58:36;;;;;;;;;;;;;;;19.96;41.12;101096.06;5058092;28;864;-56
2021/01/09 10:01:02;;;;;;;;;;;;;;;19.40;42.43;101103.56;5058676;28;792;-59
2021/01/09 10:03:37;;;;;;;;;;;;;;;19.71;41.74;101105.31;5057398;28;880;-56
2021/01/09 10:06:02;;;;;;;;;;;;;;;20.59;39.74;101108.16;5055295;28;841;-56
2021/01/09 10:08:28;;;;;;;;;;;;;;;19.97;40.93;101111.50;5047705;28;994;-55
2021/01/09 10:10:54;;;;;;;;;;;;;;;19.82;41.38;101105.00;5055450;28;880;-60
2021/01/09 10:13:26;;;;;;;;;;;;;;;19.52;42.14;101106.00;5057125;28;892;-59
2021/01/09 10:15:51;;;;;;;;;;;;;;;19.00;43.40;101105.44;5041683;28;1977;-61
2021/01/09 10:18:17;;;;;;;;;;;;;;;20.09;40.80;101103.69;5053834;28;915;-56
2021/01/09 10:20:42;;;;;;;;;;;;;;;20.25;40.24;101103.53;5058677;28;764;-60
2021/01/09 10:23:08;;;;;;;;;;;;;;;20.04;40.95;101100.94;5052815;28;1127;-56
2021/01/09 10:25:33;;;;;;;;;;;;;;;19.82;41.36;101102.25;5056666;28;914;-55
2021/01/09 10:27:58;;;;;;;;;;;;;;;19.35;42.41;101098.09;5055175;28;942;-58
2021/01/09 10:30:24;;;;;;;;;;;;;;;19.47;42.39;101097.75;5054652;28;850;-60
2021/01/09 10:32:49;;;;;;;;;;;;;;;20.43;40.05;101097.28;5054833;28;1202;-56
2021/01/09 10:35:15;;;;;;;;;;;;;;;20.13;40.35;101102.00;5052200;28;1902;-59
2021/01/09 10:37:40;;;;;;;;;;;;;;;19.86;41.12;101087.88;5047194;28;1026;-56
2021/01/09 10:40:06;;;;;;;;;;;;;;;19.53;41.97;101080.06;5056490;28;923;-59
2021/01/09 10:42:31;;;;;;;;;;;;;;;19.06;43.01;101074.00;5056060;28;943;-59
2021/01/09 10:44:57;;;;;;;;;;;;;;;20.17;40.47;101077.38;5056853;28;861;-60
2021/01/09 10:47:22;;;;;;;;;;;;;;;20.31;40.28;101066.47;5057597;28;856;-58
2021/01/09 10:49:48;;;;;;;;;;;;;;;20.02;40.90;101067.31;5056710;28;880;-59
2021/01/09 10:52:13;;;;;;;;;;;;;;;19.65;41.45;101076.94;5052989;28;899;-59
2021/01/09 10:54:39;;;;;;;;;;;;;;;19.18;42.69;101073.66;5057235;28;829;-59
2021/01/09 10:57:04;;;;;;;;;;;;;;;19.09;42.98;101080.88;5056806;28;1921;-58
2021/01/09 10:59:30;;;;;;;;;;;;;;;20.14;40.64;101078.75;5056970;28;860;-59
2021/01/09 11:01:56;;;;;;;;;;;;;;;20.55;39.58;101076.72;5057092;28;833;-58
2021/01/09 11:04:21;;;;;;;;;;;;;;;20.17;40.41;101075.44;5057016;28;884;-59
2021/01/09 11:06:47;;;;;;;;;;;;;;;19.90;41.10;101078.72;5052532;28;853;-58
2021/01/09 11:09:12;;;;;;;;;;;;;;;19.40;41.95;101084.28;5057196;28;952;-59
2021/01/09 11:11:38;;;;;;;;;;;;;;;19.43;42.14;101086.47;5057006;28;888;-59
2021/01/09 11:14:03;;;;;;;;;;;;;;;20.35;39.99;101087.66;5056697;28;867;-59
2021/01/09 11:16:29;;;;;;;;;;;;;;;20.46;39.86;101090.34;5057656;28;1969;-58
2021/01/09 11:18:54;;;;;;;;;;;;;;;20.07;40.78;101078.28;5057515;28;807;-58
2021/01/09 11:21:20;;;;;;;;;;;;;;;19.89;41.21;101070.72;5056401;28;958;-58
2021/01/09 11:23:45;;;;;;;;;;;;;;;19.43;41.94;101074.59;5037624;28;994;-60
2021/01/09 11:26:11;;;;;;;;;;;;;;;19.44;42.10;101082.59;5037664;28;1029;-59
2021/01/09 11:28:37;;;;;;;;;;;;;;;20.37;40.19;101079.13;5037773;28;740;-60
2021/01/09 11:31:02;;;;;;;;;;;;;;;20.35;39.88;101081.34;5037469;28;748;-60
2021/01/09 11:33:28;;;;;;;;;;;;;;;20.18;40.58;101087.31;5037349;28;748;-59
2021/01/09 11:35:53;;;;;;;;;;;;;;;19.66;41.30;101090.44;5037670;28;1987;-60
2021/01/09 11:38:20;;;;;;;;;;;;;;;19.37;42.19;101081.28;5036939;28;959;-59
2021/01/09 11:40:46;;;;;;;;;;;;;;;19.27;42.50;101088.50;5037206;28;780;-60
2021/01/09 11:43:11;;;;;;;;;;;;;;;20.27;40.30;101076.44;5037389;28;779;-59
2021/01/09 11:45:37;;;;;;;;;;;;;;;20.25;40.12;101079.50;5037113;28;783;-59
2021/01/09 11:48:02;;;;;;;;;;;;;;;20.02;40.70;101074.75;5037416;28;724;-58
2021/01/09 11:50:28;;;;;;;;;;;;;;;19.82;41.01;101074.66;5037209;28;775;-57
2021/01/09 11:52:53;;;;;;;;;;;;;;;19.03;42.89;101071.81;5036367;28;955;-59
2021/01/09 11:55:19;;;;;;;;;;;;;;;19.78;41.34;101080.97;5036787;28;1940;-59
2021/01/09 11:57:44;;;;;;;;;;;;;;;20.67;39.31;101080.72;5037002;28;753;-60
2021/01/09 12:00:10;;;;;;;;;;;;;;;20.28;40.08;101078.91;5036310;28;840;-58
2021/01/09 12:02:39;;;;;;;;;;;;;;;20.08;40.61;101077.19;5037488;28;775;-60
2021/01/09 12:05:08;;;;;;;;;;;;;;;19.72;41.37;101093.19;5036762;28;820;-59
2021/01/09 12:07:33;;;;;;;;;;;;;;;19.21;42.53;101103.41;5036185;28;948;-58
2021/01/09 12:09:59;;;;;;;;;;;;;;;20.20;40.50;101096.09;5036520;28;828;-58
2021/01/09 12:12:25;;;;;;;;;;;;;;;20.34;40.14;101104.53;5036710;28;764;-58
2021/01/09 12:14:50;;;;;;;;;;;;;;;20.06;40.55;101115.28;5036255;28;780;-58
2021/01/09 12:17:15;;;;;;;;;;;;;;;19.94;40.87;101112.09;5026972;28;1910;-58
2021/01/09 12:19:41;;;;;;;;;;;;;;;19.48;41.83;101118.72;5056282;28;538;-58
2021/01/09 12:22:06;;;;;;;;;;;;;;;19.15;42.88;101130.19;5038053;28;1182;-57
2021/01/09 12:24:32;;;;;;;;;;;;;;;20.07;40.87;101133.50;5056577;28;815;-59
2021/01/09 12:26:57;;;;;;;;;;;;;;;20.73;39.10;101128.47;5056407;28;799;-59
2021/01/09 12:29:23;;;;;;;;;;;;;;;21.14;38.37;101141.84;5056001;28;835;-59
2021/01/09 12:31:49;;;;;;;;;;;;;;;20.45;39.74;101153.03;5056590;28;776;-59
2021/01/09 12:34:14;;;;;;;;;;;;;;;20.20;40.53;101156.03;5037579;28;798;-59
2021/01/09 12:36:40;;;;;;;;;;;;;;;19.77;41.08;101165.72;5052162;28;1972;-58
2021/01/09 12:39:05;;;;;;;;;;;;;;;19.25;42.46;101165.16;5036395;28;808;-57
2021/01/09 12:41:31;;;;;;;;;;;;;;;19.26;42.66;101165.97;5036387;28;820;-58
2021/01/09 12:43:57;;;;;;;;;;;;;;;20.38;40.17;101162.78;5036196;28;783;-58
2021/01/09 12:46:22;;;;;;;;;;;;;;;20.34;40.04;101168.06;5036597;28;819;-58
2021/01/09 12:48:48;;;;;;;;;;;;;;;20.25;40.17;101172.56;5036388;28;808;-60
2021/01/09 12:51:13;;;;;;;;;;;;;;;19.73;41.44;101174.84;5035912;28;1018;-59